TimeCST,TemperatureF,Dew PointF,Humidity,Sea Level PressureIn,VisibilityMPH,Wind Direction,Wind SpeedMPH,Gust SpeedMPH,PrecipitationIn,Events,Conditions,WindDirDegrees,DateUTC
12:53 AM,39.9,30.9,70,30.37,10.0,South,4.6,-,N/A,,Clear,170,2012-11-14 06:53:00
1:53 AM,39.0,30.9,73,30.38,10.0,South,3.5,-,N/A,,Clear,170,2012-11-14 07:53:00
2:53 AM,37.9,30.0,73,30.38,10.0,South,4.6,-,N/A,,Clear,180,2012-11-14 08:53:00
3:53 AM,32.0,28.0,85,30.38,10.0,Calm,Calm,-,N/A,,Clear,0,2012-11-14 09:53:00
4:53 AM,30.9,27.0,85,30.39,10.0,South,3.5,-,N/A,,Clear,170,2012-11-14 10:53:00
5:53 AM,33.1,28.0,82,30.39,10.0,SE,4.6,-,N/A,,Clear,140,2012-11-14 11:53:00
6:53 AM,28.9,27.0,92,30.40,10.0,Calm,Calm,-,N/A,,Clear,0,2012-11-14 12:53:00
7:53 AM,33.1,28.0,82,30.40,10.0,Calm,Calm,-,N/A,,Clear,0,2012-11-14 13:53:00
8:53 AM,41.0,30.0,65,30.41,10.0,Calm,Calm,-,N/A,,Clear,0,2012-11-14 14:53:00
9:53 AM,46.9,28.9,50,30.40,10.0,SSW,11.5,-,N/A,,Clear,200,2012-11-14 15:53:00
10:53 AM,51.1,28.9,43,30.39,10.0,SSW,6.9,-,N/A,,Clear,210,2012-11-14 16:53:00
11:53 AM,55.0,28.0,35,30.35,10.0,South,11.5,-,N/A,,Clear,180,2012-11-14 17:53:00
12:53 PM,57.9,27.0,31,30.32,10.0,SSW,12.7,-,N/A,,Clear,200,2012-11-14 18:53:00
1:53 PM,57.9,24.1,27,30.30,10.0,SSW,11.5,-,N/A,,Clear,210,2012-11-14 19:53:00
2:53 PM,57.0,24.1,28,30.29,10.0,South,12.7,-,N/A,,Clear,180,2012-11-14 20:53:00
3:53 PM,55.9,24.1,29,30.28,10.0,SSW,11.5,-,N/A,,Clear,200,2012-11-14 21:53:00
4:53 PM,48.0,27.0,44,30.28,10.0,South,8.1,-,N/A,,Clear,170,2012-11-14 22:53:00
5:53 PM,45.0,27.0,49,30.28,10.0,SSE,6.9,-,N/A,,Clear,150,2012-11-14 23:53:00
6:53 PM,42.1,27.0,55,30.28,10.0,SSE,5.8,-,N/A,,Clear,160,2012-11-15 00:53:00
7:53 PM,43.0,32.0,65,30.29,10.0,South,3.5,-,N/A,,Clear,190,2012-11-15 01:53:00
8:53 PM,42.1,28.0,58,30.28,10.0,SSE,6.9,-,N/A,,Clear,160,2012-11-15 02:53:00
9:53 PM,42.1,28.0,58,30.28,10.0,South,6.9,-,N/A,,Clear,180,2012-11-15 03:53:00
10:53 PM,43.0,27.0,53,30.27,10.0,SE,4.6,-,N/A,,Clear,140,2012-11-15 04:53:00
11:53 PM,39.0,27.0,62,30.28,10.0,South,4.6,-,N/A,,Clear,180,2012-11-15 05:53:00